Latest Weather Observations for Melbourne (Olympic Park)

IDV60901

Issued at 8:41 pm EST Thursday 3 September 2015 (issued every 10 minutes, with the page automatically refreshed every 10 minutes)

About weather observations | Map of Melbourne area stations | Latest observations for Melbourne area | Other Formats
Station Details ID: 086338 Name: MELBOURNE (OLYMPIC PARK) Lat: -37.83 Lon: 144.98 Height: 7.53 m
Data from the previous 72 hours. | See also: Recent months at Melbourne (Olympic Park)
Date/Time
EST
Tmp

°C
App
Tmp
°C
Dew
Point
°C
Rel
Hum
%
Delta-T

°C
Wind Press
QNH
hPa
Press
MSL
hPa
Rain
since
9 am
mm
Dir
 
Spd
km/h
Gust
km/h
Spd
kts
Gust
kts
03/08:30pm 10.6 7.9 5.6 71 2.3 S 9 15 5 8 1022.3 1022.3 0.0
03/08:00pm 10.6 7.9 5.6 71 2.3 S 9 17 5 9 1022.0 1022.0 0.0
03/07:30pm 10.9 7.1 5.9 71 2.3 S 15 24 8 13 1021.5 1021.5 0.0
03/07:00pm 11.0 7.8 6.7 75 2.0 S 13 28 7 15 1021.1 1021.1 0.0
03/06:30pm 11.1 8.7 7.2 77 1.9 S 9 17 5 9 1020.7 1020.7 0.0
03/06:00pm 11.4 8.2 6.9 74 2.1 S 13 24 7 13 1020.4 1020.4 0.0
03/05:30pm 11.8 8.8 7.5 75 2.1 SSW 13 22 7 12 1019.8 1019.8 0.0
03/05:00pm 12.0 9.8 7.7 75 2.1 SSW 9 20 5 11 1019.2 1019.2 0.0
03/04:30pm 12.5 8.9 8.2 75 2.1 S 17 28 9 15 1018.6 1018.6 0.0
03/04:00pm 12.8 8.8 8.3 74 2.2 SSW 19 37 10 20 1018.2 1018.2 0.0
03/03:30pm 12.7 8.3 8.8 77 2.0 SSW 22 35 12 19 1017.8 1017.8 0.0
03/03:00pm 12.9 8.2 9.2 78 1.9 SSW 24 35 13 19 1017.2 1017.2 0.0
03/02:30pm 13.1 8.4 9.2 77 2.0 SSW 24 39 13 21 1016.8 1016.8 0.0
03/02:00pm 12.5 8.5 9.1 80 1.7 SSW 20 33 11 18 1016.4 1016.4 0.0
03/01:30pm 12.8 9.1 10.2 84 1.3 SSW 20 35 11 19 1016.2 1016.2 0.0
03/01:00pm 12.6 9.1 10.3 86 1.2 SSW 19 28 10 15 1016.2 1016.2 0.0
03/12:30pm 13.4 11.6 10.9 85 1.3 SSW 11 19 6 10 1015.9 1015.9 0.0
03/12:00pm 12.9 10.6 10.4 85 1.3 S 13 20 7 11 1015.7 1015.7 0.0
03/11:30am 12.6 10.0 10.7 88 1.0 S 15 24 8 13 1015.6 1015.6 0.0
03/11:00am 12.6 10.4 10.7 88 1.0 SSW 13 26 7 14 1015.2 1015.2 0.0
03/10:30am 12.7 10.4 10.6 87 1.1 SSW 13 24 7 13 1014.7 1014.7 0.0
03/10:00am 13.0 11.1 10.5 85 1.3 SSW 11 17 6 9 1014.1 1014.1 0.0
03/09:30am 13.3 11.0 10.3 82 1.6 SSW 13 24 7 13 1013.5 1013.5 0.0
03/09:00am 13.2 11.3 10.6 84 1.4 SW 11 15 6 8 1012.8 1012.8 4.4
03/08:30am 13.0 11.0 10.0 82 1.5 S 11 17 6 9 1012.3 1012.3 4.4
03/08:00am 12.4 11.6 9.8 84 1.3 S 4 7 2 4 1011.5 1011.5 4.4
03/07:30am 11.8 10.6 9.7 87 1.1 SSW 6 15 3 8 1011.0 1011.0 4.4
03/07:00am 11.8 9.8 10.0 89 0.9 SSW 11 17 6 9 1010.2 1010.2 4.4
03/06:30am 11.6 10.1 10.5 93 0.6 SSW 9 17 5 9 1009.5 1009.5 4.4
03/06:00am 11.6 10.5 10.5 93 0.6 SW 7 13 4 7 1009.1 1009.1 4.4
03/05:30am 11.3 11.0 10.0 92 0.7 WSW 2 11 1 6 1008.8 1008.8 4.4
03/05:00am 11.3 10.6 10.2 93 0.6 W 4 7 2 4 1008.8 1008.8 4.4
03/04:30am 11.0 11.0 9.8 92 0.6 CALM 0 0 0 0 1008.3 1008.3 4.4
03/04:00am 11.3 11.3 9.7 90 0.8 CALM 0 6 0 3 1008.0 1008.0 4.4
03/03:30am 11.5 10.6 9.2 86 1.2 SSW 4 11 2 6 1007.6 1007.6 4.4
03/03:00am 11.3 10.1 9.6 89 0.9 S 6 11 3 6 1007.4 1007.4 4.4
03/02:30am 10.7 9.8 10.7 100 0.0 SSE 6 17 3 9 1007.4 1007.4 4.4
03/02:00am 10.8 11.1 10.8 100 0.0 CALM 0 0 0 0 1007.4 1007.4 4.4
03/01:30am 10.8 11.1 10.8 100 0.0 CALM 0 0 0 0 1007.5 1007.5 4.4
03/01:00am 10.8 11.1 10.8 100 0.0 CALM 0 0 0 0 1007.5 1007.5 4.4
03/12:30am 10.9 11.2 10.9 100 0.0 CALM 0 0 0 0 1007.6 1007.6 4.4
03/12:00am 11.1 11.4 10.8 98 0.2 CALM 0 0 0 0 1007.4 1007.4 4.4
 
Date/Time
EST
Tmp

°C
App
Tmp
°C
Dew
Point
°C
Rel
Hum
%
Delta-T

°C
Wind Press
QNH
hPa
Press
MSL
hPa
Rain
since
9 am
mm
Dir
 
Spd
km/h
Gust
km/h
Spd
kts
Gust
kts
02/11:30pm 11.2 11.4 10.7 97 0.3 CALM 0 0 0 0 1007.4 1007.4 4.4
02/11:00pm 11.3 10.4 10.8 97 0.3 ESE 6 11 3 6 1007.4 1007.4 4.4
02/10:30pm 11.3 11.3 11.3 100 0.0 SSE 2 9 1 5 1007.6 1007.6 4.4
02/10:00pm 11.5 12.0 11.5 100 0.0 CALM 0 2 0 1 1008.1 1008.1 4.2
02/09:30pm 11.6 12.1 11.6 100 0.0 CALM 0 0 0 0 1008.2 1008.2 4.2
02/09:00pm 11.8 12.4 11.8 100 0.0 CALM 0 0 0 0 1008.3 1008.3 4.2
02/08:30pm 12.0 12.6 12.0 100 0.0 CALM 0 0 0 0 1008.5 1008.5 4.2
02/08:00pm 12.0 12.6 12.0 100 0.0 CALM 0 0 0 0 1008.5 1008.5 4.0
02/07:30pm 12.0 12.6 11.8 99 0.1 CALM 0 0 0 0 1008.4 1008.4 3.2
02/07:00pm 12.4 12.9 11.5 94 0.5 CALM 0 0 0 0 1008.4 1008.4 2.6
02/06:30pm 13.8 12.4 9.0 73 2.4 N 6 9 3 5 1008.2 1008.2 1.4
02/06:00pm 14.0 14.1 10.2 78 2.0 CALM 0 6 0 3 1007.9 1007.9 0.6
02/05:30pm 15.6 13.1 6.6 55 4.4 NNE 9 13 5 7 1007.5 1007.5 0.0
02/05:00pm 17.0 12.9 4.3 43 6.0 NNE 15 20 8 11 1006.9 1006.9 0.0
02/04:30pm 17.0 13.3 4.3 43 6.0 NNE 13 20 7 11 1006.8 1006.8 0.0
02/04:00pm 17.1 13.4 4.4 43 6.0 NE 13 20 7 11 1006.7 1006.7 0.0
02/03:30pm 17.2 13.1 4.5 43 6.0 NNE 15 20 8 11 1006.7 1006.7 0.0
02/03:00pm 17.4 12.4 4.7 43 6.1 NNE 20 32 11 17 1007.0 1007.0 0.0
02/02:30pm 18.0 14.5 5.6 44 6.0 NE 13 20 7 11 1007.2 1007.2 0.0
02/02:00pm 18.0 13.7 5.2 43 6.2 N 17 32 9 17 1007.7 1007.7 0.0
02/01:30pm 18.7 14.5 5.5 42 6.4 NNE 17 30 9 16 1008.4 1008.4 0.0
02/01:00pm 17.2 13.0 5.5 46 5.7 N 17 28 9 15 1009.1 1009.1 0.0
02/12:30pm 16.6 11.9 5.3 47 5.4 N 19 32 10 17 1009.7 1009.7 0.0
02/12:00pm 17.1 11.9 5.7 47 5.5 NNE 22 35 12 19 1010.1 1010.1 0.0
02/11:30am 16.3 11.4 5.3 48 5.3 NNE 20 30 11 16 1010.6 1010.6 0.0
02/11:00am 15.4 10.7 5.0 50 4.9 NNE 19 28 10 15 1011.1 1011.1 0.0
02/10:30am 14.5 9.8 5.0 53 4.4 NNE 19 30 10 16 1011.4 1011.4 0.0
02/10:00am 13.7 9.0 5.1 56 4.0 NNE 19 32 10 17 1011.9 1011.9 0.0
02/09:30am 13.5 10.1 5.7 59 3.7 N 13 20 7 11 1012.1 1012.1 0.0
02/09:00am 12.5 8.9 5.2 61 3.4 N 13 19 7 10 1012.5 1012.5 0.0
02/08:30am 11.6 8.5 5.7 67 2.7 N 11 15 6 8 1012.7 1012.7 0.0
02/08:00am 10.7 7.2 5.3 69 2.5 NNE 13 19 7 10 1012.6 1012.6 0.0
02/07:30am 9.8 6.6 5.0 72 2.2 NNE 11 15 6 8 1012.7 1012.7 0.0
02/07:00am 9.2 6.3 4.8 74 2.0 N 9 11 5 6 1012.7 1012.7 0.0
02/06:30am 9.4 6.1 4.8 73 2.1 NNE 11 13 6 7 1012.5 1012.5 0.0
02/06:00am 9.0 5.7 4.6 74 1.9 N 11 17 6 9 1012.7 1012.7 0.0
02/05:30am 8.8 5.5 4.4 74 1.9 NNE 11 15 6 8 1012.7 1012.7 0.0
02/05:00am 8.9 6.4 4.5 74 1.9 N 7 11 4 6 1012.7 1012.7 0.0
02/04:30am 8.6 5.6 4.2 74 1.9 NNE 9 13 5 7 1012.8 1012.8 0.0
02/04:00am 8.3 5.3 4.1 75 1.8 N 9 11 5 6 1012.8 1012.8 0.0
02/03:30am 8.1 4.3 3.8 74 1.9 NNE 13 15 7 8 1012.7 1012.7 0.0
02/03:00am 8.2 4.8 4.0 75 1.8 NNE 11 15 6 8 1012.9 1012.9 0.0
02/02:30am 8.3 4.5 3.9 74 1.9 NNE 13 15 7 8 1013.2 1013.2 0.0
02/02:00am 9.1 6.1 4.1 71 2.2 N 9 13 5 7 1013.6 1013.6 0.0
02/01:30am 9.4 5.7 4.2 70 2.3 N 13 19 7 10 1013.6 1013.6 0.0
02/01:00am 9.4 6.0 4.2 70 2.3 NNE 11 15 6 8 1013.6 1013.6 0.0
02/12:30am 9.3 6.3 4.3 71 2.2 N 9 15 5 8 1013.8 1013.8 0.0
02/12:00am 9.3 6.4 4.5 72 2.1 N 9 17 5 9 1013.8 1013.8 0.0
 
Date/Time
EST
Tmp

°C
App
Tmp
°C
Dew
Point
°C
Rel
Hum
%
Delta-T

°C
Wind Press
QNH
hPa
Press
MSL
hPa
Rain
since
9 am
mm
Dir
 
Spd
km/h
Gust
km/h
Spd
kts
Gust
kts
01/11:30pm 9.5 6.2 4.5 71 2.2 NNE 11 17 6 9 1014.0 1014.0 0.0
01/11:00pm 9.6 6.3 4.4 70 2.3 NNE 11 15 6 8 1014.1 1014.1 0.0
01/10:30pm 10.0 7.1 4.8 70 2.3 NNE 9 11 5 6 1014.2 1014.2 0.0
01/10:00pm 10.4 7.5 4.8 68 2.5 NNE 9 11 5 6 1014.5 1014.5 0.0
01/09:30pm 11.0 8.5 4.7 65 2.8 NNE 7 13 4 7 1014.6 1014.6 0.0
01/09:00pm 11.6 8.7 4.8 63 3.1 NNE 9 11 5 6 1014.4 1014.4 0.0
01/08:30pm 11.8 9.3 5.0 63 3.1 NNE 7 9 4 5 1014.1 1014.1 0.0
01/08:00pm 12.4 10.4 4.6 59 3.6 NNE 4 11 2 6 1013.9 1013.9 0.0
01/07:30pm 13.1 10.5 4.3 55 4.0 N 7 11 4 6 1013.8 1013.8 0.0
01/07:00pm 13.6 10.6 4.2 53 4.3 NNE 9 15 5 8 1013.8 1013.8 0.0
01/06:30pm 14.1 11.5 4.1 51 4.6 NNE 7 11 4 6 1013.5 1013.5 0.0
01/06:00pm 14.8 11.8 4.2 49 4.9 NNE 9 13 5 7 1013.2 1013.2 0.0
01/05:30pm 14.3 12.4 5.1 54 4.3 SE 4 9 2 5 1013.0 1013.0 0.0
01/05:00pm 15.1 13.1 4.2 48 5.0 SE 4 9 2 5 1012.8 1012.8 0.0
01/04:30pm 15.2 12.7 4.9 50 4.8 SSW 7 9 4 5 1013.1 1013.1 0.0
01/04:00pm 15.1 12.6 4.5 49 4.9 SSW 7 11 4 6 1013.2 1013.2 0.0
01/03:30pm 14.7 11.6 5.5 54 4.4 SSW 11 17 6 9 1013.5 1013.5 0.0
01/03:00pm 14.3 11.0 4.6 52 4.5 SSW 11 19 6 10 1013.7 1013.7 0.0
01/02:30pm 15.9 13.0 4.6 47 5.3 NW 9 19 5 10 1013.8 1013.8 0.0
01/02:00pm 15.1 12.6 4.5 49 4.9 SW 7 11 4 6 1014.0 1014.0 0.0
01/01:30pm 14.6 11.3 2.5 44 5.4 N 9 15 5 8 1014.5 1014.5 0.0
01/01:00pm 14.5 11.7 3.0 46 5.2 NNW 7 15 4 8 1015.3 1015.3 0.0
01/12:30pm 14.1 11.4 3.6 49 4.8 NNW 7 15 4 8 1015.9 1015.9 0.0
01/12:00pm 13.1 10.6 3.5 52 4.3 SW 6 15 3 8 1016.7 1016.7 0.0
01/11:30am 12.6 9.1 3.5 54 4.1 NNE 11 20 6 11 1017.0 1017.0 0.0
01/11:00am 11.8 8.2 3.1 55 3.8 N 11 17 6 9 1017.3 1017.3 0.0
01/10:30am 11.2 8.4 3.0 57 3.6 NE 7 11 4 6 1017.3 1017.3 0.0
01/10:00am 10.8 8.2 3.4 60 3.2 NE 6 9 3 5 1017.5 1017.5 0.0
01/09:30am 9.7 6.8 4.7 71 2.2 N 9 11 5 6 1017.6 1017.6 0.0
01/09:00am 8.6 5.7 4.4 75 1.8 NNE 9 13 5 7 1017.6 1017.6 0.0
01/08:30am 8.0 5.1 4.9 81 1.4 NE 9 13 5 7 1017.6 1017.6 0.0
01/08:00am 6.3 3.8 4.5 88 0.8 N 7 11 4 6 1017.6 1017.6 0.0
01/07:30am 5.4 2.3 3.6 88 0.8 NNE 9 15 5 8 1017.4 1017.4 0.0
01/07:00am 5.3 2.2 3.6 89 0.7 N 9 13 5 7 1017.1 1017.1 0.0
01/06:30am 5.8 3.3 3.8 87 0.8 N 6 9 3 5 1016.8 1016.8 0.0
01/06:00am 6.8 4.2 4.1 83 1.2 NNE 7 11 4 6 1016.7 1016.7 0.0
01/05:30am 7.3 6.0 3.9 79 1.5 CALM 0 0 0 0 1016.7 1016.7 0.0
01/05:00am 8.5 6.5 2.5 66 2.5 SE 2 7 1 4 1016.8 1016.8 0.0
01/04:30am 8.8 7.4 3.4 69 2.3 CALM 0 6 0 3 1016.8 1016.8 0.0
01/04:00am 9.7 7.3 2.1 59 3.2 E 4 9 2 5 1016.9 1016.9 0.0
01/03:30am 9.1 7.7 3.7 69 2.3 CALM 0 0 0 0 1017.2 1017.2 0.0
01/03:00am 9.0 7.8 4.4 73 2.0 CALM 0 0 0 0 1017.4 1017.4 0.0
01/02:30am 9.4 8.0 3.6 67 2.5 CALM 0 0 0 0 1017.6 1017.6 0.0
01/02:00am 9.9 8.4 3.0 62 3.0 CALM 0 0 0 0 1018.1 1018.1 0.0
01/01:30am 10.1 8.0 2.0 57 3.4 SSW 2 7 1 4 1018.5 1018.5 0.0
01/01:00am 10.1 7.7 2.2 58 3.3 SE 4 9 2 5 1018.6 1018.6 0.0
01/12:30am 10.0 8.4 2.6 60 3.2 CALM 0 9 0 5 1018.7 1018.7 0.0
01/12:00am 10.3 7.0 2.2 57 3.4 SSW 9 17 5 9 1018.6 1018.6 0.0
 
Date/Time
EST
Tmp

°C
App
Tmp
°C
Dew
Point
°C
Rel
Hum
%
Delta-T

°C
Wind Press
QNH
hPa
Press
MSL
hPa
Rain
since
9 am
mm
Dir
 
Spd
km/h
Gust
km/h
Spd
kts
Gust
kts
31/11:30pm 10.3 8.4 2.9 60 3.2 S 2 7 1 4 1018.7 1018.7 0.0
31/11:00pm 10.4 7.6 3.2 61 3.1 SE 7 11 4 6 1018.9 1018.9 0.0
31/10:30pm 10.6 7.4 2.9 59 3.3 E 9 15 5 8 1019.0 1019.0 0.0
31/10:00pm 10.6 8.5 4.1 64 2.9 SSE 4 7 2 4 1019.1 1019.1 0.0
31/09:30pm 10.6 9.2 3.6 62 3.1 CALM 0 6 0 3 1019.2 1019.2 0.0
31/09:00pm 10.8 8.1 3.6 61 3.2 SSE 7 11 4 6 1019.3 1019.3 0.0

Latest Capital City Observations: Canberra | Sydney | Melbourne | Brisbane | Adelaide | Perth | Hobart | Darwin

Other Formats:

Comma delimited format used in spreadsheet applications
http://www.bom.gov.au/fwo/IDV60901/IDV60901.95936.axf

JavaScript Object Notation format (JSON) in row-major order
http://www.bom.gov.au/fwo/IDV60901/IDV60901.95936.json